createdAt,value
2019-04-22T00:02:17.465Z,72.57
2019-04-22T00:05:04.827Z,72.51
2019-04-22T00:07:48.941Z,72.06
2019-04-22T00:10:26.512Z,72.29
2019-04-22T00:15:32.503Z,72.56
2019-04-22T00:18:13.262Z,72.72
2019-04-22T00:20:48.814Z,73.44
2019-04-22T00:23:18.681Z,72.53
2019-04-22T00:25:57.264Z,72.78
2019-04-22T00:28:35.023Z,72.67
2019-04-22T00:31:13.129Z,72.43
2019-04-22T00:33:41.945Z,73.30
2019-04-22T00:36:16.657Z,74.06
2019-04-22T00:38:54.504Z,73.87
2019-04-22T00:41:28.674Z,74.31
2019-04-22T00:44:05.251Z,73.90
2019-04-22T00:46:31.345Z,73.78
2019-04-22T00:49:55.408Z,74.36
2019-04-22T00:51:44.889Z,74.33
2019-04-22T00:54:17.076Z,73.81
2019-04-22T00:56:47.927Z,74.20
2019-04-22T00:59:18.783Z,73.95
2019-04-22T01:02:05.632Z,73.96
2019-04-22T01:04:35.078Z,73.96
2019-04-22T01:07:09.301Z,73.83
2019-04-22T01:09:40.154Z,73.57
2019-04-22T01:12:13.599Z,73.58
2019-04-22T01:14:47.778Z,73.64
2019-04-22T01:17:21.214Z,73.41
2019-04-22T01:19:58.354Z,74.11
2019-04-22T01:22:27.155Z,73.61
2019-04-22T01:25:02.539Z,74.06
2019-04-22T01:27:30.904Z,74.17
2019-04-22T01:30:00.986Z,73.83
2019-04-22T01:32:30.428Z,74.12
2019-04-22T01:35:09.850Z,74.17
2019-04-22T01:37:49.568Z,74.08
2019-04-22T01:40:33.494Z,74.03
2019-04-22T01:43:08.663Z,75.25
2019-04-22T01:45:39.331Z,75.31
2019-04-22T01:48:10.647Z,74.58
2019-04-22T01:50:45.865Z,74.90
2019-04-22T01:53:19.371Z,75.52
2019-04-22T01:55:59.041Z,74.96
2019-04-22T01:58:23.778Z,75.18
2019-04-22T02:00:59.739Z,74.72
2019-04-22T02:03:41.438Z,74.45
2019-04-22T02:06:17.117Z,74.51
2019-04-22T02:11:28.798Z,74.97
2019-04-22T02:13:56.590Z,75.01
2019-04-22T02:16:33.980Z,75.33
2019-04-22T02:19:15.185Z,75.69
2019-04-22T02:21:38.767Z,75.68
2019-04-22T02:24:12.221Z,75.03
2019-04-22T02:27:00.274Z,74.66
2019-04-22T02:29:23.256Z,74.30
2019-04-22T02:34:40.306Z,74.04
2019-04-22T02:37:03.161Z,73.71
2019-04-22T02:39:41.126Z,73.96
2019-04-22T02:44:47.060Z,74.11
2019-04-22T02:49:53.584Z,74.12
2019-04-22T02:52:30.997Z,74.30
2019-04-22T02:55:15.780Z,73.82
2019-04-22T03:00:16.225Z,74.59
2019-04-22T03:05:27.961Z,76.32
2019-04-22T03:08:00.400Z,76.52
2019-04-22T03:10:37.416Z,76.27
2019-04-22T03:13:01.022Z,76.97
2019-04-22T03:18:10.889Z,76.82
2019-04-22T03:20:41.586Z,77.65
2019-04-22T03:23:27.353Z,77.21
2019-04-22T03:28:32.895Z,76.72
2019-04-22T03:37:09.545Z,76.28
2019-04-22T03:54:58.477Z,77.40
2019-04-22T03:59:59.357Z,77.40
2019-04-22T04:02:43.454Z,77.37
2019-04-22T04:05:05.300Z,77.69
2019-04-22T04:10:27.914Z,77.50
2019-04-22T04:15:29.913Z,77.61
2019-04-22T04:25:42.431Z,77.38
2019-04-22T04:30:40.042Z,76.54
2019-04-22T04:38:28.768Z,76.00
2019-04-22T04:41:06.024Z,75.98
2019-04-22T04:46:16.069Z,76.34
2019-04-22T04:48:55.716Z,76.20
2019-04-22T04:51:30.567Z,76.07
2019-04-22T04:54:01.837Z,76.10
2019-04-22T04:56:29.615Z,76.72
2019-04-22T04:59:19.505Z,75.80
2019-04-22T05:01:35.993Z,76.57
2019-04-22T05:09:21.496Z,77.10
2019-04-22T05:17:03.921Z,78.49
2019-04-22T05:19:32.346Z,76.17
2019-04-22T05:24:34.452Z,75.97
2019-04-22T05:27:27.947Z,75.72
2019-04-22T05:30:04.028Z,75.49
2019-04-22T05:32:19.525Z,75.60
2019-04-22T05:35:06.883Z,75.58
2019-04-22T05:37:30.932Z,75.13
2019-04-22T05:40:06.188Z,75.80
2019-04-22T05:42:32.165Z,76.63
2019-04-22T05:45:13.372Z,75.45
2019-04-22T05:47:44.302Z,75.38
2019-04-22T05:50:14.483Z,74.40
2019-04-22T05:53:03.322Z,72.70
2019-04-22T05:55:33.231Z,72.44
2019-04-22T05:58:02.485Z,71.64
2019-04-22T06:01:05.647Z,71.89
2019-04-22T06:03:17.229Z,71.62
2019-04-22T06:06:07.794Z,71.45
2019-04-22T06:08:18.247Z,71.35
2019-04-22T06:11:04.219Z,72.37
2019-04-22T06:13:28.035Z,71.34
2019-04-22T06:16:03.680Z,71.13
2019-04-22T06:18:38.571Z,71.66
2019-04-22T06:21:11.161Z,70.99
2019-04-22T06:26:46.267Z,69.40
2019-04-22T06:28:56.946Z,69.85
2019-04-22T06:31:36.890Z,68.54
2019-04-22T06:34:10.541Z,68.54
2019-04-22T06:39:14.630Z,67.75
2019-04-22T06:41:47.845Z,67.57
2019-04-22T06:46:52.599Z,67.04
2019-04-22T06:49:31.810Z,66.25
2019-04-22T06:52:09.197Z,65.37
2019-04-22T06:54:32.929Z,64.71
2019-04-22T06:57:09.894Z,63.89
2019-04-22T06:59:42.679Z,64.31
2019-04-22T07:02:16.730Z,63.96
2019-04-22T07:04:52.004Z,63.71
2019-04-22T07:07:39.993Z,64.58
2019-04-22T07:10:06.652Z,64.27
2019-04-22T07:12:29.053Z,65.40
2019-04-22T07:15:16.924Z,65.64
2019-04-22T07:17:42.405Z,64.94
2019-04-22T07:20:17.755Z,64.75
2019-04-22T07:22:45.312Z,63.32
2019-04-22T07:25:28.070Z,64.22
2019-04-22T07:27:52.132Z,63.75
2019-04-22T07:30:26.402Z,63.52
2019-04-22T07:35:48.926Z,60.66
2019-04-22T07:38:20.562Z,60.15
2019-04-22T07:40:50.149Z,60.13
2019-04-22T07:45:53.807Z,59.62
2019-04-22T07:48:33.892Z,58.88
2019-04-22T07:53:37.069Z,59.31
2019-04-22T07:56:12.190Z,59.76
2019-04-22T07:58:43.305Z,60.12
2019-04-22T08:01:20.452Z,60.53
2019-04-22T08:04:05.537Z,59.88
2019-04-22T08:06:23.354Z,60.14
2019-04-22T08:09:04.678Z,60.86
2019-04-22T08:11:46.268Z,60.46
2019-04-22T08:14:07.634Z,59.48
2019-04-22T08:16:44.001Z,58.97
2019-04-22T08:19:35.462Z,57.70
2019-04-22T08:21:50.891Z,56.01
2019-04-22T08:24:22.585Z,54.70
2019-04-22T08:27:00.931Z,52.77
2019-04-22T08:29:38.148Z,52.12
2019-04-22T08:32:06.080Z,52.84
2019-04-22T08:34:38.971Z,54.46
2019-04-22T08:37:41.619Z,56.26
2019-04-22T08:39:41.983Z,57.69
2019-04-22T08:42:27.953Z,58.05
2019-04-22T08:45:08.030Z,58.69
2019-04-22T08:47:30.980Z,58.51
2019-04-22T08:50:20.101Z,58.85
2019-04-22T08:52:35.455Z,59.35
2019-04-22T08:55:14.322Z,59.34
2019-04-22T08:58:03.192Z,58.69
2019-04-22T09:00:12.720Z,58.15
2019-04-22T09:02:55.501Z,56.09
2019-04-22T09:05:44.909Z,54.61
2019-04-22T09:07:58.708Z,53.18
2019-04-22T09:10:37.798Z,54.15
2019-04-22T09:15:45.068Z,55.17
2019-04-22T09:18:16.155Z,55.57
2019-04-22T09:20:49.202Z,55.96
2019-04-22T09:23:26.915Z,56.33
2019-04-22T09:25:53.514Z,56.24
2019-04-22T09:28:33.182Z,56.02
2019-04-22T09:31:06.340Z,56.58
2019-04-22T09:33:38.184Z,56.32
2019-04-22T09:36:16.853Z,54.44
2019-04-22T09:38:45.063Z,53.60
2019-04-22T09:41:18.800Z,54.77
2019-04-22T09:43:56.999Z,54.28
2019-04-22T09:46:32.857Z,55.06
2019-04-22T09:49:06.337Z,53.30
2019-04-22T09:51:32.183Z,52.74
2019-04-22T09:54:16.809Z,52.73
2019-04-22T09:56:43.928Z,52.30
2019-04-22T09:59:14.028Z,52.16
2019-04-22T10:02:03.985Z,50.03
2019-04-22T10:04:21.848Z,49.22
2019-04-22T10:06:54.440Z,49.31
2019-04-22T10:09:52.834Z,49.54
2019-04-22T10:12:16.663Z,50.30
2019-04-22T10:14:45.388Z,50.77
2019-04-22T10:17:15.618Z,50.81
2019-04-22T10:19:51.607Z,49.31
2019-04-22T10:25:01.691Z,49.00
2019-04-22T10:27:35.077Z,48.00
2019-04-22T10:30:04.409Z,47.12
2019-04-22T10:32:37.611Z,48.00
2019-04-22T10:35:11.060Z,47.45
2019-04-22T10:37:40.639Z,46.24
2019-04-22T10:40:19.561Z,44.87
2019-04-22T10:42:53.602Z,43.52
2019-04-22T10:45:26.134Z,44.06
2019-04-22T10:47:58.509Z,45.46
2019-04-22T10:50:43.029Z,46.73
2019-04-22T10:53:17.647Z,48.28
2019-04-22T10:55:51.681Z,47.21
2019-04-22T10:58:24.862Z,43.42
2019-04-22T11:00:58.160Z,45.20
2019-04-22T11:03:31.192Z,43.13
2019-04-22T11:06:03.538Z,41.56
2019-04-22T11:08:43.510Z,40.85
2019-04-22T11:11:21.595Z,43.23
2019-04-22T11:13:44.043Z,45.03
2019-04-22T11:16:21.309Z,46.87
2019-04-22T11:18:55.929Z,47.26
2019-04-22T11:21:29.572Z,46.89
2019-04-22T11:24:02.975Z,46.37
2019-04-22T11:26:36.867Z,44.23
2019-04-22T11:29:09.864Z,42.71
2019-04-22T11:31:42.397Z,43.99
2019-04-22T11:34:15.341Z,46.00
2019-04-22T11:36:48.657Z,46.38
2019-04-22T11:39:19.808Z,47.42
2019-04-22T11:41:51.944Z,44.17
2019-04-22T11:44:25.433Z,46.16
2019-04-22T11:46:57.131Z,44.16
2019-04-22T11:49:31.931Z,38.76
2019-04-22T11:52:06.577Z,39.92
2019-04-22T11:54:38.866Z,38.62
2019-04-22T11:57:11.076Z,39.31
2019-04-22T11:59:43.166Z,40.83
2019-04-22T12:02:16.130Z,43.18
2019-04-22T12:04:47.720Z,42.06
2019-04-22T12:07:21.205Z,44.23
2019-04-22T12:09:53.627Z,46.67
2019-04-22T12:12:27.809Z,46.60
2019-04-22T12:15:00.748Z,46.79
2019-04-22T12:17:33.878Z,46.54
2019-04-22T12:20:09.827Z,46.44
2019-04-22T12:22:41.156Z,44.45
2019-04-22T12:25:29.208Z,42.43
2019-04-22T12:27:48.395Z,39.15
2019-04-22T12:30:19.780Z,37.52
2019-04-22T12:32:52.703Z,36.79
2019-04-22T12:35:26.281Z,37.30
2019-04-22T12:38:02.661Z,37.06
2019-04-22T12:40:40.869Z,36.89
2019-04-22T12:43:08.253Z,37.08
2019-04-22T12:45:40.380Z,36.24
2019-04-22T12:48:12.910Z,37.28
2019-04-22T12:50:48.031Z,37.96
2019-04-22T12:53:23.542Z,36.74
2019-04-22T12:55:55.197Z,36.13
2019-04-22T12:58:27.665Z,36.74
2019-04-22T13:01:01.042Z,36.33
2019-04-22T13:03:34.256Z,36.88
2019-04-22T13:06:07.836Z,38.36
2019-04-22T13:08:41.310Z,38.19
2019-04-22T13:11:18.007Z,38.48
2019-04-22T13:13:47.425Z,37.76
2019-04-22T13:16:21.063Z,39.38
2019-04-22T13:18:59.254Z,37.65
2019-04-22T13:21:27.229Z,36.91
2019-04-22T13:23:59.324Z,35.22
2019-04-22T13:26:31.831Z,33.84
2019-04-22T13:29:03.234Z,31.08
2019-04-22T13:31:35.345Z,29.68
2019-04-22T13:34:13.262Z,32.98
2019-04-22T13:36:43.607Z,34.04
2019-04-22T13:39:16.728Z,32.47
2019-04-22T13:41:54.586Z,37.86
2019-04-22T13:44:23.132Z,37.67
2019-04-22T13:47:08.718Z,32.60
2019-04-22T13:50:08.812Z,32.37
2019-04-22T13:52:40.913Z,34.19
2019-04-22T13:55:00.314Z,33.29
2019-04-22T13:57:32.600Z,34.09
2019-04-22T13:59:50.724Z,34.14
2019-04-22T14:02:44.665Z,34.26
2019-04-22T14:05:19.041Z,32.61
2019-04-22T14:07:54.851Z,33.91
2019-04-22T14:10:24.924Z,33.90
2019-04-22T14:12:57.044Z,33.54
2019-04-22T14:15:29.852Z,31.80
2019-04-22T14:18:03.068Z,35.46
2019-04-22T14:20:36.806Z,36.74
2019-04-22T14:23:13.704Z,38.19
2019-04-22T14:25:46.387Z,39.34
2019-04-22T14:28:21.158Z,40.33
2019-04-22T14:30:52.788Z,39.72
2019-04-22T14:33:24.845Z,38.04
2019-04-22T14:35:58.082Z,37.58
2019-04-22T14:38:32.373Z,34.51
2019-04-22T14:41:05.878Z,35.64
2019-04-22T14:44:23.290Z,35.98
2019-04-22T14:46:38.891Z,34.36
2019-04-22T14:49:10.095Z,34.00
2019-04-22T14:51:46.852Z,34.47
2019-04-22T14:54:13.677Z,35.10
2019-04-22T14:56:31.405Z,35.10
2019-04-22T14:59:04.988Z,35.88
2019-04-22T15:01:40.124Z,36.55
2019-04-22T15:04:11.030Z,37.65
2019-04-22T15:06:46.097Z,37.36
2019-04-22T15:09:16.222Z,35.19
2019-04-22T15:11:58.202Z,37.29
2019-04-22T15:14:23.353Z,37.22
2019-04-22T15:17:20.836Z,37.08
2019-04-22T15:20:07.691Z,37.77
2019-04-22T15:22:40.938Z,37.33
2019-04-22T15:25:14.374Z,38.06
2019-04-22T15:27:47.745Z,38.03
2019-04-22T15:30:21.436Z,38.29
2019-04-22T15:32:53.776Z,38.69
2019-04-22T15:35:25.233Z,38.58
2019-04-22T15:37:57.367Z,38.64
2019-04-22T15:40:29.345Z,38.75
2019-04-22T15:43:02.757Z,38.82
2019-04-22T15:45:35.027Z,39.40
2019-04-22T15:48:08.276Z,39.57
2019-04-22T15:50:40.700Z,39.97
2019-04-22T15:53:13.802Z,40.21
2019-04-22T15:55:47.100Z,39.93
2019-04-22T15:58:19.753Z,40.24
2019-04-22T16:01:03.952Z,40.31
2019-04-22T16:03:26.870Z,40.44
2019-04-22T16:05:59.785Z,40.55
2019-04-22T16:08:34.177Z,40.69
2019-04-22T16:11:06.279Z,40.76
2019-04-22T16:13:40.047Z,41.07
2019-04-22T16:16:12.502Z,41.32
2019-04-22T16:18:44.815Z,41.47
2019-04-22T16:21:26.718Z,41.69
2019-04-22T16:23:58.692Z,42.11
2019-04-22T16:26:50.547Z,42.29
2019-04-22T16:29:23.457Z,42.37
2019-04-22T16:31:55.670Z,42.59
2019-04-22T16:34:29.308Z,42.58
2019-04-22T16:37:02.901Z,43.00
2019-04-22T16:39:36.455Z,42.96
2019-04-22T16:42:23.506Z,43.02
2019-04-22T16:44:47.303Z,42.92
2019-04-22T16:47:19.570Z,43.08
2019-04-22T16:49:52.105Z,43.26
2019-04-22T16:52:23.839Z,43.07
2019-04-22T16:54:56.845Z,42.08
2019-04-22T16:57:30.054Z,43.22
2019-04-22T17:00:04.742Z,42.96
2019-04-22T17:03:10.717Z,42.83
2019-04-22T17:06:08.026Z,42.46
2019-04-22T17:08:40.742Z,42.39
2019-04-22T17:11:11.782Z,42.60
2019-04-22T17:13:44.636Z,41.64
2019-04-22T17:16:18.112Z,42.89
2019-04-22T17:18:50.325Z,42.95
2019-04-22T17:21:23.488Z,42.90
2019-04-22T17:23:56.127Z,43.12
2019-04-22T17:26:28.578Z,42.82
2019-04-22T17:29:03.104Z,43.25
2019-04-22T17:31:34.851Z,43.03
2019-04-22T17:34:07.084Z,43.37
2019-04-22T17:36:40.558Z,43.45
2019-04-22T17:39:27.035Z,43.48
2019-04-22T17:42:08.361Z,43.38
2019-04-22T17:44:48.375Z,43.68
2019-04-22T17:47:45.287Z,43.58
2019-04-22T17:50:28.560Z,43.80
2019-04-22T17:53:11.590Z,43.92
2019-04-22T17:55:41.660Z,43.76
2019-04-22T17:58:07.505Z,43.86
2019-04-22T18:00:36.343Z,43.65
2019-04-22T18:03:08.509Z,43.80
2019-04-22T18:05:40.942Z,43.90
2019-04-22T18:08:25.160Z,44.00
2019-04-22T18:10:59.862Z,44.20
2019-04-22T18:13:32.214Z,44.45
2019-04-22T18:16:09.837Z,44.48
2019-04-22T18:18:39.492Z,44.36
2019-04-22T18:21:11.955Z,44.35
2019-04-22T18:23:30.983Z,44.48
2019-04-22T18:26:18.542Z,44.51
2019-04-22T18:28:54.346Z,44.68
2019-04-22T18:31:26.286Z,44.67
2019-04-22T18:33:54.483Z,44.85
2019-04-22T18:36:33.343Z,44.54
2019-04-22T18:39:11.182Z,45.03
2019-04-22T18:41:39.528Z,45.27
2019-04-22T18:44:20.220Z,45.36
2019-04-22T18:46:51.136Z,45.48
2019-04-22T18:49:22.929Z,45.78
2019-04-22T18:52:04.533Z,45.83
2019-04-22T18:54:53.508Z,45.95
2019-04-22T18:57:27.349Z,45.95
2019-04-22T18:59:49.905Z,45.45
2019-04-22T19:02:24.733Z,45.77
2019-04-22T19:05:08.451Z,45.49
2019-04-22T19:07:59.171Z,45.63
2019-04-22T19:10:37.527Z,45.65
2019-04-22T19:13:41.374Z,45.71
2019-04-22T19:15:44.940Z,45.75
2019-04-22T19:18:24.225Z,45.86
2019-04-22T19:20:59.555Z,46.17
2019-04-22T19:23:28.108Z,46.35
2019-04-22T19:25:58.570Z,46.32
2019-04-22T19:28:49.477Z,46.44
2019-04-22T19:31:17.294Z,46.67
2019-04-22T19:33:45.993Z,46.67
2019-04-22T19:36:21.243Z,46.86
2019-04-22T19:38:52.519Z,47.07
2019-04-22T19:41:35.162Z,47.35
2019-04-22T19:44:04.145Z,47.31
2019-04-22T19:46:34.538Z,47.57
2019-04-22T19:49:18.153Z,47.42
2019-04-22T19:51:55.855Z,47.45
2019-04-22T19:54:19.114Z,47.47
2019-04-22T19:56:40.440Z,47.48
2019-04-22T19:59:22.466Z,47.40
2019-04-22T20:02:39.222Z,47.58
2019-04-22T20:05:41.526Z,47.70
2019-04-22T20:08:12.591Z,47.81
2019-04-22T20:10:42.116Z,48.21
2019-04-22T20:13:24.295Z,48.18
2019-04-22T20:15:47.394Z,48.18
2019-04-22T20:18:37.282Z,48.17
2019-04-22T20:21:07.524Z,48.06
2019-04-22T20:23:29.122Z,48.07
2019-04-22T20:26:02.170Z,48.06
2019-04-22T20:28:47.487Z,48.11
2019-04-22T20:31:18.509Z,47.92
2019-04-22T20:33:56.095Z,48.05
2019-04-22T20:36:51.046Z,48.06
2019-04-22T20:38:59.573Z,48.06
2019-04-22T20:41:31.428Z,48.05
2019-04-22T20:44:20.798Z,48.12
2019-04-22T20:46:47.493Z,48.23
2019-04-22T20:49:22.327Z,48.38
2019-04-22T20:51:58.820Z,48.46
2019-04-22T20:54:32.505Z,48.43
2019-04-22T20:56:56.422Z,48.52
2019-04-22T20:59:33.400Z,48.73
2019-04-22T21:02:11.526Z,48.63
2019-04-22T21:04:35.846Z,48.73
2019-04-22T21:07:14.052Z,48.72
2019-04-22T21:09:51.762Z,48.97
2019-04-22T21:12:20.298Z,49.09
2019-04-22T21:15:03.675Z,49.12
2019-04-22T21:17:36.177Z,49.11
2019-04-22T21:20:13.799Z,49.32
2019-04-22T21:22:44.769Z,49.50
2019-04-22T21:25:08.910Z,49.83
2019-04-22T21:27:52.792Z,49.98
2019-04-22T21:30:24.566Z,50.08
2019-04-22T21:32:53.558Z,50.32
2019-04-22T21:35:47.508Z,50.29
2019-04-22T21:38:08.377Z,50.35
2019-04-22T21:40:40.267Z,50.24
2019-04-22T21:43:21.477Z,50.60
2019-04-22T21:45:43.180Z,50.79
2019-04-22T21:48:31.151Z,50.84
2019-04-22T21:50:59.498Z,50.91
2019-04-22T21:53:41.834Z,51.14
2019-04-22T21:56:23.247Z,51.05
2019-04-22T21:59:05.164Z,51.16
2019-04-22T22:01:52.685Z,51.04
2019-04-22T22:04:17.501Z,51.28
2019-04-22T22:06:41.093Z,51.42
2019-04-22T22:09:25.089Z,51.56
2019-04-22T22:11:58.028Z,51.55
2019-04-22T22:14:31.659Z,51.72
2019-04-22T22:17:01.267Z,51.76
2019-04-22T22:19:45.573Z,51.87
2019-04-22T22:22:36.134Z,51.91
2019-04-22T22:24:55.108Z,52.09
2019-04-22T22:27:25.477Z,52.09
2019-04-22T22:32:36.756Z,52.51
2019-04-22T22:35:06.847Z,52.45
2019-04-22T22:37:35.870Z,52.65
2019-04-22T22:40:06.647Z,52.50
2019-04-22T22:42:38.107Z,52.65
2019-04-22T22:45:16.336Z,52.53
2019-04-22T22:48:03.922Z,52.60
2019-04-22T22:50:36.013Z,52.50
2019-04-22T22:53:22.336Z,52.47
2019-04-22T22:55:47.680Z,52.55
2019-04-22T22:58:17.666Z,52.62
2019-04-22T23:00:44.149Z,52.82
2019-04-22T23:03:40.521Z,52.89
2019-04-22T23:06:06.238Z,52.88
2019-04-22T23:08:31.098Z,52.95
2019-04-22T23:11:05.052Z,53.17
2019-04-22T23:13:42.806Z,53.16
2019-04-22T23:16:04.935Z,52.92
2019-04-22T23:18:27.911Z,52.86
2019-04-22T23:21:01.431Z,52.97
2019-04-22T23:23:51.588Z,53.02
2019-04-22T23:26:35.938Z,53.19
2019-04-22T23:29:26.290Z,53.19
2019-04-22T23:31:59.653Z,53.29
2019-04-22T23:34:32.760Z,54.97
2019-04-22T23:37:28.969Z,53.12
2019-04-22T23:40:17.273Z,53.22
2019-04-22T23:42:48.270Z,53.02
2019-04-22T23:45:22.573Z,53.03
2019-04-22T23:47:43.220Z,53.23
2019-04-22T23:50:26.453Z,53.45
2019-04-22T23:52:58.842Z,53.28
2019-04-22T23:55:37.005Z,53.51
2019-04-22T23:58:09.587Z,53.57
